Time;durP1;ratioP1;P1;durP2;ratioP2;P2;SDS_P1;SDS_P2;PMS_P1;PMS_P2;Temp;Humidity;BMP_temperature;BMP_pressure;BME280_temperature;BME280_humidity;BME280_pressure;Samples;Min_cycle;Max_cycle;Signal;HPM_P1;HPM_P2
2024/01/17 00:01:50;;;;;;;;;;;;;;;-6.49;100.00;97151.86;110332;1238;69072;-52
2024/01/17 00:04:21;;;;;;;;;;;;;;;-6.52;100.00;97148.14;110387;1241;69295;-58
2024/01/17 00:06:51;;;;;;;;;;;;;;;-6.55;100.00;97142.59;110366;1241;60433;-55
2024/01/17 00:09:22;;;;;;;;;;;;;;;-6.58;100.00;97143.11;110388;1241;60517;-55
2024/01/17 00:11:53;;;;;;;;;;;;;;;-6.60;100.00;97151.96;110350;1241;72595;-54
2024/01/17 00:14:25;;;;;;;;;;;;;;;-6.63;100.00;97157.58;110415;1242;69092;-55
2024/01/17 00:16:55;;;;;;;;;;;;;;;-6.66;100.00;97158.79;110341;1242;68787;-53
2024/01/17 00:19:24;;;;;;;;;;;;;;;-6.69;100.00;97153.21;110342;1242;60529;-53
2024/01/17 00:21:54;;;;;;;;;;;;;;;-6.74;100.00;97145.82;110376;1241;60431;-55
2024/01/17 00:24:26;;;;;;;;;;;;;;;-6.76;100.00;97142.60;110371;1241;71508;-55
2024/01/17 00:26:57;;;;;;;;;;;;;;;-6.76;100.00;97142.77;110397;1241;68693;-56
2024/01/17 00:29:28;;;;;;;;;;;;;;;-6.77;100.00;97148.54;110349;1242;68409;-57
2024/01/17 00:31:59;;;;;;;;;;;;;;;-6.77;100.00;97144.80;110377;1238;60514;-54
2024/01/17 00:34:31;;;;;;;;;;;;;;;-6.74;100.00;97140.05;110389;1238;60562;-54
2024/01/17 00:37:15;;;;;;;;;;;;;;;-6.76;100.00;97130.05;110385;1242;72221;-56
2024/01/17 00:39:47;;;;;;;;;;;;;;;-6.78;100.00;97112.63;110371;1238;67421;-54
2024/01/17 00:42:18;;;;;;;;;;;;;;;-6.81;100.00;97105.88;110356;1241;69146;-56
2024/01/17 00:44:49;;;;;;;;;;;;;;;-6.81;100.00;97118.25;110392;1238;60499;-56
2024/01/17 00:47:22;;;;;;;;;;;;;;;-6.81;100.00;97113.66;110396;1242;60513;-56
2024/01/17 00:49:53;;;;;;;;;;;;;;;-6.79;100.00;97114.34;110413;1241;72673;-52
2024/01/17 00:52:24;;;;;;;;;;;;;;;-6.79;100.00;97117.05;110402;1241;69410;-53
2024/01/17 00:54:54;;;;;;;;;;;;;;;-6.80;100.00;97120.77;110437;1238;69145;-56
2024/01/17 00:57:24;;;;;;;;;;;;;;;-6.79;100.00;97117.05;110425;1241;60505;-55
2024/01/17 00:59:55;;;;;;;;;;;;;;;-6.79;100.00;97118.91;110445;1241;60481;-56
2024/01/17 01:02:26;;;;;;;;;;;;;;;-6.80;100.00;97112.98;110425;1242;72088;-56
2024/01/17 01:04:57;;;;;;;;;;;;;;;-6.77;100.00;97116.01;110307;1240;68534;-54
2024/01/17 01:07:33;;;;;;;;;;;;;;;-6.75;100.00;97114.13;110300;1241;69438;-54
2024/01/17 01:10:05;;;;;;;;;;;;;;;-6.73;100.00;97112.08;110271;1242;60531;-56
2024/01/17 01:12:38;;;;;;;;;;;;;;;-6.69;100.00;97106.61;110286;1242;60473;-55
2024/01/17 01:15:08;;;;;;;;;;;;;;;-6.66;100.00;97114.02;110298;1242;71530;-57
2024/01/17 01:17:43;;;;;;;;;;;;;;;-6.63;100.00;97116.39;110317;1241;69154;-56
2024/01/17 01:20:24;;;;;;;;;;;;;;;-6.62;100.00;97125.52;110300;1240;69425;-57
2024/01/17 01:22:59;;;;;;;;;;;;;;;-6.59;100.00;97133.98;110275;1243;60498;-57
2024/01/17 01:25:33;;;;;;;;;;;;;;;-6.57;100.00;97134.29;110324;1241;60452;-57
2024/01/17 01:28:04;;;;;;;;;;;;;;;-6.53;100.00;97137.30;110336;1242;71298;-53
2024/01/17 01:30:34;;;;;;;;;;;;;;;-6.48;100.00;97138.95;110267;1241;69153;-56
2024/01/17 01:33:14;;;;;;;;;;;;;;;-6.43;100.00;97134.84;110305;1242;69303;-55
2024/01/17 01:35:46;;;;;;;;;;;;;;;-6.39;100.00;97122.75;110278;1242;60499;-55
2024/01/17 01:38:17;;;;;;;;;;;;;;;-6.33;100.00;97115.56;110298;1240;60537;-54
2024/01/17 01:40:49;;;;;;;;;;;;;;;-6.26;100.00;97106.49;110280;1241;72009;-56
2024/01/17 01:43:19;;;;;;;;;;;;;;;-6.22;100.00;97099.66;110284;1241;68413;-57
2024/01/17 01:46:03;;;;;;;;;;;;;;;-6.18;100.00;97100.45;110325;1241;69108;-56
2024/01/17 01:48:40;;;;;;;;;;;;;;;-6.16;100.00;97112.83;110156;1245;60570;-56
2024/01/17 01:51:12;;;;;;;;;;;;;;;-6.15;100.00;97115.88;110286;1242;60437;-54
2024/01/17 01:53:43;;;;;;;;;;;;;;;-6.16;100.00;97118.93;110318;1242;71504;-55
2024/01/17 01:56:15;;;;;;;;;;;;;;;-6.17;100.00;97117.42;110353;1240;69314;-54
2024/01/17 01:58:47;;;;;;;;;;;;;;;-6.15;100.00;97119.27;110318;1242;68557;-56
2024/01/17 02:01:19;;;;;;;;;;;;;;;-6.14;100.00;97121.64;110291;1242;60546;-55
2024/01/17 02:03:49;;;;;;;;;;;;;;;-6.13;100.00;97123.33;110479;1241;60511;-55
2024/01/17 02:06:26;;;;;;;;;;;;;;;-6.12;100.00;97121.95;110455;1238;71488;-54
2024/01/17 02:09:04;;;;;;;;;;;;;;;-6.12;100.00;97117.36;110503;1238;69384;-55
2024/01/17 02:11:34;;;;;;;;;;;;;;;-6.12;100.00;97112.63;110461;1242;68542;-56
2024/01/17 02:14:06;;;;;;;;;;;;;;;-6.13;100.00;97108.90;110440;1242;60548;-55
2024/01/17 02:16:39;;;;;;;;;;;;;;;-6.13;100.00;97107.39;110467;1241;60526;-56
2024/01/17 02:19:15;;;;;;;;;;;;;;;-6.13;100.00;97098.90;110368;1242;72343;-55
2024/01/17 02:21:46;;;;;;;;;;;;;;;-6.13;100.00;97097.20;110455;1242;67606;-57
2024/01/17 02:24:18;;;;;;;;;;;;;;;-6.12;100.00;97100.58;110438;1250;69634;-56
2024/01/17 02:26:48;;;;;;;;;;;;;;;-6.13;100.00;97099.75;110426;1242;60644;-54
2024/01/17 02:29:19;;;;;;;;;;;;;;;-6.13;100.00;97098.55;110457;1241;60540;-58
2024/01/17 02:31:53;;;;;;;;;;;;;;;-6.11;100.00;97091.39;110404;1241;70645;-54
2024/01/17 02:34:26;;;;;;;;;;;;;;;-6.09;100.00;97089.18;110433;1242;69555;-56
2024/01/17 02:37:00;;;;;;;;;;;;;;;-6.08;100.00;97092.73;110368;1242;67446;-55
2024/01/17 02:39:33;;;;;;;;;;;;;;;-6.07;100.00;97097.63;110427;1242;60496;-53
2024/01/17 02:42:05;;;;;;;;;;;;;;;-6.09;100.00;97097.14;110578;1242;60490;-56
2024/01/17 02:44:38;;;;;;;;;;;;;;;-6.11;100.00;97093.42;110459;1241;71042;-56
2024/01/17 02:47:19;;;;;;;;;;;;;;;-6.13;100.00;97093.30;110455;1242;68426;-54
2024/01/17 02:49:51;;;;;;;;;;;;;;;-6.15;100.00;97090.27;110426;1241;69274;-56
2024/01/17 02:52:24;;;;;;;;;;;;;;;-6.18;100.00;97094.55;110446;1241;60495;-57
2024/01/17 02:55:04;;;;;;;;;;;;;;;-6.21;100.00;97089.48;110448;1242;60424;-57
2024/01/17 02:57:39;;;;;;;;;;;;;;;-6.24;100.00;97099.52;110475;1241;72034;-55
2024/01/17 03:00:11;;;;;;;;;;;;;;;-6.27;100.00;97098.55;110371;1241;68525;-57
2024/01/17 03:02:46;;;;;;;;;;;;;;;-6.31;100.00;97099.77;110454;1242;69197;-57
2024/01/17 03:05:18;;;;;;;;;;;;;;;-6.36;100.00;97106.77;110423;1241;60547;-55
2024/01/17 03:07:57;;;;;;;;;;;;;;;-6.42;100.00;97109.55;110362;1242;60496;-55
2024/01/17 03:10:35;;;;;;;;;;;;;;;-6.48;100.00;97103.17;110373;1242;71494;-54
2024/01/17 03:13:12;;;;;;;;;;;;;;;-6.54;100.00;97096.79;110374;1241;68421;-56
2024/01/17 03:15:48;;;;;;;;;;;;;;;-6.61;100.00;97095.52;110419;1242;69199;-55
2024/01/17 03:18:20;;;;;;;;;;;;;;;-6.69;100.00;97098.80;110353;1238;60538;-55
2024/01/17 03:20:52;;;;;;;;;;;;;;;-6.74;100.00;97098.70;110386;1241;60481;-56
2024/01/17 03:23:24;;;;;;;;;;;;;;;-6.81;100.00;97093.34;110166;1244;71608;-57
2024/01/17 03:25:55;;;;;;;;;;;;;;;-6.87;100.00;97092.38;110373;1241;69096;-54
2024/01/17 03:28:30;;;;;;;;;;;;;;;-6.94;100.00;97089.55;110392;1242;69400;-56
2024/01/17 03:31:04;;;;;;;;;;;;;;;-6.99;100.00;97085.20;110402;1242;60904;-55
2024/01/17 03:33:38;;;;;;;;;;;;;;;-7.03;100.00;97090.80;110482;1242;60515;-55
2024/01/17 03:36:12;;;;;;;;;;;;;;;-7.04;100.00;97091.52;110556;1239;72098;-58
2024/01/17 03:38:45;;;;;;;;;;;;;;;-7.06;100.00;97098.30;110389;1238;68480;-55
2024/01/17 03:41:17;;;;;;;;;;;;;;;-7.09;100.00;97095.79;110387;1242;69336;-57
2024/01/17 03:43:51;;;;;;;;;;;;;;;-7.10;100.00;97090.71;110447;1241;60830;-58
2024/01/17 03:46:24;;;;;;;;;;;;;;;-7.11;100.00;97087.85;110450;1241;60902;-56
2024/01/17 03:48:55;;;;;;;;;;;;;;;-7.13;100.00;97085.66;110488;1241;71417;-54
2024/01/17 03:51:28;;;;;;;;;;;;;;;-7.18;100.00;97085.34;110478;1242;69222;-56
2024/01/17 03:53:58;;;;;;;;;;;;;;;-7.23;100.00;97078.96;110481;1242;69276;-56
2024/01/17 03:56:29;;;;;;;;;;;;;;;-7.26;100.00;97080.15;110479;1242;60501;-55
2024/01/17 03:58:59;;;;;;;;;;;;;;;-7.27;100.00;97082.71;110478;1242;60531;-57
2024/01/17 04:01:32;;;;;;;;;;;;;;;-7.27;100.00;97080.51;110548;1242;72060;-56
2024/01/17 04:04:02;;;;;;;;;;;;;;;-7.28;100.00;97083.90;110366;1242;68469;-53
2024/01/17 04:06:34;;;;;;;;;;;;;;;-7.30;100.00;97089.00;110314;1242;69092;-56
2024/01/17 04:09:05;;;;;;;;;;;;;;;-7.33;100.00;97094.29;110292;1242;60466;-56
2024/01/17 04:11:36;;;;;;;;;;;;;;;-7.36;100.00;97098.19;110301;1240;60551;-56
2024/01/17 04:14:07;;;;;;;;;;;;;;;-7.38;100.00;97099.06;110273;1241;71470;-55
2024/01/17 04:16:39;;;;;;;;;;;;;;;-7.40;100.00;97099.06;110422;1242;69823;-57
2024/01/17 04:19:10;;;;;;;;;;;;;;;-7.43;100.00;97104.16;110167;1245;70577;-56
2024/01/17 04:21:45;;;;;;;;;;;;;;;-7.43;100.00;97100.61;110337;1240;60567;-55
2024/01/17 04:24:17;;;;;;;;;;;;;;;-7.42;100.00;97098.23;110327;1241;60506;-56
2024/01/17 04:26:47;;;;;;;;;;;;;;;-7.42;100.00;97101.29;110295;1240;70339;-58
2024/01/17 04:29:18;;;;;;;;;;;;;;;-7.45;100.00;97099.44;110332;1242;69702;-56
2024/01/17 04:31:52;;;;;;;;;;;;;;;-7.45;100.00;97100.96;110301;1241;69445;-56
2024/01/17 04:34:22;;;;;;;;;;;;;;;-7.45;100.00;97098.94;110363;1241;60489;-54
2024/01/17 04:36:54;;;;;;;;;;;;;;;-7.48;100.00;97099.98;110354;1241;60540;-53
2024/01/17 04:39:24;;;;;;;;;;;;;;;-7.48;100.00;97108.95;110299;1241;72295;-56
2024/01/17 04:41:56;;;;;;;;;;;;;;;-7.46;100.00;97105.38;110353;1241;68623;-56
2024/01/17 04:44:30;;;;;;;;;;;;;;;-7.44;100.00;97103.67;110355;1247;69088;-56
2024/01/17 04:47:02;;;;;;;;;;;;;;;-7.46;100.00;97113.15;110347;1241;60537;-55
2024/01/17 04:49:32;;;;;;;;;;;;;;;-7.50;100.00;97111.32;110313;1241;60533;-56
2024/01/17 04:52:03;;;;;;;;;;;;;;;-7.54;100.00;97112.70;110274;1240;72207;-54
2024/01/17 04:54:34;;;;;;;;;;;;;;;-7.56;100.00;97107.30;110299;1240;69902;-57
2024/01/17 04:57:05;;;;;;;;;;;;;;;-7.57;100.00;97108.16;110396;1242;69282;-56
2024/01/17 04:59:37;;;;;;;;;;;;;;;-7.60;100.00;97106.30;110384;1242;60495;-55
2024/01/17 05:02:09;;;;;;;;;;;;;;;-7.64;100.00;97107.86;110246;1245;60555;-56
2024/01/17 05:04:39;;;;;;;;;;;;;;;-7.69;100.00;97110.75;110362;1242;72205;-56
2024/01/17 05:07:10;;;;;;;;;;;;;;;-7.72;100.00;97105.20;110345;1242;67328;-54
2024/01/17 05:09:40;;;;;;;;;;;;;;;-7.76;100.00;97101.99;110353;1242;68338;-54
2024/01/17 05:12:10;;;;;;;;;;;;;;;-7.80;100.00;97106.09;110301;1241;60542;-56
2024/01/17 05:14:42;;;;;;;;;;;;;;;-7.85;100.00;97104.42;110380;1242;60480;-54
2024/01/17 05:17:12;;;;;;;;;;;;;;;-7.88;100.00;97101.05;110351;1242;72602;-55
2024/01/17 05:19:42;;;;;;;;;;;;;;;-7.89;100.00;97098.35;110179;1245;69244;-55
2024/01/17 05:22:14;;;;;;;;;;;;;;;-7.86;100.00;97098.48;110354;1242;68120;-56
2024/01/17 05:24:43;;;;;;;;;;;;;;;-7.83;100.00;97095.78;110341;1243;60519;-56
2024/01/17 05:27:13;;;;;;;;;;;;;;;-7.82;100.00;97099.31;110325;1242;60556;-57
2024/01/17 05:29:44;;;;;;;;;;;;;;;-7.82;100.00;97095.26;110329;1242;72039;-56
2024/01/17 05:32:14;;;;;;;;;;;;;;;-7.83;100.00;97099.16;110398;1240;69768;-56
2024/01/17 05:34:46;;;;;;;;;;;;;;;-7.87;100.00;97098.67;110397;1241;68377;-54
2024/01/17 05:37:21;;;;;;;;;;;;;;;-7.89;100.00;97102.08;110367;1243;60534;-55
2024/01/17 05:39:52;;;;;;;;;;;;;;;-7.90;100.00;97101.08;110443;1242;60614;-55
2024/01/17 05:42:24;;;;;;;;;;;;;;;-7.94;100.00;97102.27;110392;1241;71486;-58
2024/01/17 05:44:55;;;;;;;;;;;;;;;-8.00;100.00;97099.09;110356;1248;69258;-55
2024/01/17 05:47:25;;;;;;;;;;;;;;;-8.03;100.00;97103.67;110368;1244;69224;-56
2024/01/17 05:49:54;;;;;;;;;;;;;;;-8.06;100.00;97099.11;110350;1242;60569;-56
2024/01/17 05:52:24;;;;;;;;;;;;;;;-8.10;100.00;97100.14;110439;1242;60508;-55
2024/01/17 05:54:54;;;;;;;;;;;;;;;-8.13;100.00;97101.00;110406;1242;72560;-53
2024/01/17 05:57:23;;;;;;;;;;;;;;;-8.16;100.00;97098.32;110403;1242;68337;-54
2024/01/17 05:59:52;;;;;;;;;;;;;;;-8.19;100.00;97095.27;110454;1242;69249;-53
2024/01/17 06:02:22;;;;;;;;;;;;;;;-8.21;100.00;97090.55;110355;1241;61011;-55
2024/01/17 06:04:51;;;;;;;;;;;;;;;-8.22;100.00;97091.24;110359;1243;60485;-54
2024/01/17 06:07:21;;;;;;;;;;;;;;;-8.19;100.00;97090.88;110389;1242;71399;-56
2024/01/17 06:09:51;;;;;;;;;;;;;;;-8.18;100.00;97098.48;110381;1242;69509;-54
2024/01/17 06:12:20;;;;;;;;;;;;;;;-8.17;100.00;97102.21;110381;1244;69921;-57
2024/01/17 06:14:50;;;;;;;;;;;;;;;-8.18;100.00;97100.34;110402;1242;60531;-55
2024/01/17 06:17:19;;;;;;;;;;;;;;;-8.19;100.00;97101.70;110517;1242;60529;-56
2024/01/17 06:19:48;;;;;;;;;;;;;;;-8.18;100.00;97100.84;110385;1242;72343;-55
2024/01/17 06:22:18;;;;;;;;;;;;;;;-8.15;100.00;97104.55;110384;1242;69083;-53
2024/01/17 06:24:47;;;;;;;;;;;;;;;-8.11;100.00;97101.67;110360;1242;69100;-55
2024/01/17 06:27:18;;;;;;;;;;;;;;;-8.08;100.00;97098.27;110383;1242;60541;-56
2024/01/17 06:29:48;;;;;;;;;;;;;;;-8.06;100.00;97097.77;110363;1243;60846;-55
2024/01/17 06:32:18;;;;;;;;;;;;;;;-8.05;100.00;97099.94;110539;1242;72799;-55
2024/01/17 06:34:48;;;;;;;;;;;;;;;-8.02;100.00;97096.56;110462;1241;68413;-56
2024/01/17 06:37:19;;;;;;;;;;;;;;;-7.98;100.00;97093.16;110398;1240;69916;-54
2024/01/17 06:39:48;;;;;;;;;;;;;;;-7.92;100.00;97087.70;110359;1243;60538;-53
2024/01/17 06:42:18;;;;;;;;;;;;;;;-7.85;100.00;97087.16;110376;1241;60479;-53
2024/01/17 06:44:47;;;;;;;;;;;;;;;-7.79;100.00;97085.11;110365;1241;72097;-55
2024/01/17 06:47:17;;;;;;;;;;;;;;;-7.75;100.00;97085.92;110405;1242;69814;-56
2024/01/17 06:49:46;;;;;;;;;;;;;;;-7.72;100.00;97079.98;110349;1242;69730;-54
2024/01/17 06:52:15;;;;;;;;;;;;;;;-7.69;100.00;97074.89;110485;1241;60504;-54
2024/01/17 06:54:44;;;;;;;;;;;;;;;-7.65;100.00;97071.98;110386;1241;60513;-56
2024/01/17 06:57:14;;;;;;;;;;;;;;;-7.63;100.00;97070.28;110470;1242;72863;-56
2024/01/17 06:59:43;;;;;;;;;;;;;;;-7.59;100.00;97073.64;110450;1244;68754;-53
2024/01/17 07:02:12;;;;;;;;;;;;;;;-7.52;100.00;97074.27;110462;1243;69355;-55
2024/01/17 07:04:42;;;;;;;;;;;;;;;-7.43;100.00;97074.55;110360;1246;60493;-56
2024/01/17 07:07:11;;;;;;;;;;;;;;;-7.31;100.00;97071.23;110373;1238;60532;-57
2024/01/17 07:09:41;;;;;;;;;;;;;;;-7.14;100.00;97071.60;110403;1242;70664;-55
2024/01/17 07:12:10;;;;;;;;;;;;;;;-6.80;100.00;97066.54;110446;1242;69305;-56
2024/01/17 07:14:40;;;;;;;;;;;;;;;-6.25;100.00;97064.59;110371;1241;68221;-53
2024/01/17 07:17:09;;;;;;;;;;;;;;;-5.63;100.00;97053.89;110376;1243;60543;-56
2024/01/17 07:19:39;;;;;;;;;;;;;;;-4.98;100.00;97052.36;110426;1241;60460;-55
2024/01/17 07:22:09;;;;;;;;;;;;;;;-4.30;99.93;97049.90;110415;1241;72125;-57
2024/01/17 07:24:39;;;;;;;;;;;;;;;-3.57;95.62;97035.59;110339;1242;69214;-56
2024/01/17 07:27:08;;;;;;;;;;;;;;;-2.82;97.55;97028.16;110460;1242;69884;-58
2024/01/17 07:29:38;;;;;;;;;;;;;;;-2.17;88.56;97022.45;110365;1241;60459;-57
2024/01/17 07:32:08;;;;;;;;;;;;;;;-1.53;83.65;97016.30;110351;1242;60918;-58
2024/01/17 07:34:38;;;;;;;;;;;;;;;-1.24;77.10;97017.24;110372;1242;72299;-57
2024/01/17 07:37:08;;;;;;;;;;;;;;;-0.85;74.57;97020.77;110421;1242;69341;-58
2024/01/17 07:39:43;;;;;;;;;;;;;;;-0.46;71.47;97021.48;110441;1242;68584;-59
2024/01/17 07:42:12;;;;;;;;;;;;;;;-0.10;69.29;97012.81;110518;1243;60467;-58
2024/01/17 07:44:42;;;;;;;;;;;;;;;0.02;69.43;97019.90;110462;1242;60450;-59
2024/01/17 07:47:12;;;;;;;;;;;;;;;0.41;67.74;97015.54;110350;1242;70833;-58
2024/01/17 07:49:42;;;;;;;;;;;;;;;0.99;65.36;97012.90;110402;1243;69077;-60
2024/01/17 07:52:12;;;;;;;;;;;;;;;1.40;63.91;97009.45;110403;1239;69808;-60
2024/01/17 07:54:41;;;;;;;;;;;;;;;1.45;63.37;97007.19;110388;1242;60478;-58
2024/01/17 07:57:12;;;;;;;;;;;;;;;1.74;62.05;97009.36;110476;1242;60486;-58
2024/01/17 07:59:41;;;;;;;;;;;;;;;1.62;62.02;97015.36;110581;1242;72910;-58
2024/01/17 08:02:11;;;;;;;;;;;;;;;1.63;61.93;97015.83;110507;1242;69795;-60
2024/01/17 08:04:43;;;;;;;;;;;;;;;2.20;61.10;97005.39;110490;1242;69763;-60
2024/01/17 08:07:13;;;;;;;;;;;;;;;2.66;58.64;97002.20;110456;1242;60499;-62
2024/01/17 08:09:43;;;;;;;;;;;;;;;2.98;58.41;97002.39;110517;1243;60532;-61
2024/01/17 08:12:12;;;;;;;;;;;;;;;3.45;60.19;96991.08;110514;1242;71537;-60
2024/01/17 08:14:42;;;;;;;;;;;;;;;4.32;60.00;96981.13;110384;1242;68428;-59
2024/01/17 08:17:11;;;;;;;;;;;;;;;4.93;60.17;96981.19;110416;1241;69843;-59
2024/01/17 08:19:40;;;;;;;;;;;;;;;4.94;51.83;96977.52;110394;1242;60475;-59
2024/01/17 08:22:10;;;;;;;;;;;;;;;5.12;52.36;96977.53;110459;1242;60481;-59
2024/01/17 08:24:41;;;;;;;;;;;;;;;5.19;50.80;96979.89;110423;1242;72777;-60
2024/01/17 08:27:11;;;;;;;;;;;;;;;5.54;52.83;96979.36;110400;1243;69617;-60
2024/01/17 08:29:41;;;;;;;;;;;;;;;6.04;48.55;96970.15;110301;1242;68772;-60
2024/01/17 08:32:11;;;;;;;;;;;;;;;6.21;48.01;96970.67;110385;1242;60546;-60
2024/01/17 08:34:40;;;;;;;;;;;;;;;6.73;52.04;96962.00;110401;1241;60514;-61
2024/01/17 08:37:09;;;;;;;;;;;;;;;7.49;55.06;96949.48;110514;1242;72820;-61
2024/01/17 08:39:43;;;;;;;;;;;;;;;7.64;52.41;96935.30;110506;1241;68544;-59
2024/01/17 08:42:13;;;;;;;;;;;;;;;7.42;49.11;96932.50;110438;1242;69834;-59
2024/01/17 08:44:43;;;;;;;;;;;;;;;7.59;50.20;96926.66;110485;1242;60481;-59
2024/01/17 08:47:12;;;;;;;;;;;;;;;7.49;48.68;96931.00;110427;1243;60485;-60
2024/01/17 08:49:41;;;;;;;;;;;;;;;7.46;45.95;96922.15;110525;1244;72769;-59
2024/01/17 08:52:11;;;;;;;;;;;;;;;7.60;46.86;96918.30;110461;1241;69214;-59
2024/01/17 08:54:40;;;;;;;;;;;;;;;7.86;48.24;96918.35;110421;1242;69536;-60
2024/01/17 08:57:09;;;;;;;;;;;;;;;7.88;46.74;96913.52;110379;1239;60611;-59
2024/01/17 08:59:39;;;;;;;;;;;;;;;8.09;47.92;96917.08;110446;1248;60483;-60
2024/01/17 09:02:09;;;;;;;;;;;;;;;8.03;43.08;96914.55;110485;1239;72955;-61
2024/01/17 09:04:39;;;;;;;;;;;;;;;8.16;45.24;96915.95;110410;1242;68453;-59
2024/01/17 09:07:09;;;;;;;;;;;;;;;8.49;47.77;96916.71;110348;1244;69246;-59
2024/01/17 09:09:38;;;;;;;;;;;;;;;8.28;45.55;96916.99;110425;1242;60563;-60
2024/01/17 09:12:08;;;;;;;;;;;;;;;8.21;45.64;96910.34;110435;1242;60402;-58
2024/01/17 09:14:41;;;;;;;;;;;;;;;8.37;44.21;96917.22;110447;1242;71481;-59
2024/01/17 09:17:11;;;;;;;;;;;;;;;8.65;44.00;96907.70;110504;1241;68240;-60
2024/01/17 09:19:41;;;;;;;;;;;;;;;9.08;45.13;96898.83;110454;1238;69552;-60
2024/01/17 09:22:10;;;;;;;;;;;;;;;9.13;43.88;96889.93;110492;1240;60547;-60
2024/01/17 09:24:41;;;;;;;;;;;;;;;9.04;41.16;96881.38;110494;1242;60488;-59
2024/01/17 09:27:12;;;;;;;;;;;;;;;9.64;42.75;96875.08;110463;1241;72437;-59
2024/01/17 09:29:45;;;;;;;;;;;;;;;9.78;41.58;96865.77;110476;1249;69860;-59
2024/01/17 09:32:14;;;;;;;;;;;;;;;10.23;42.04;96858.61;110464;1250;69232;-61
2024/01/17 09:34:47;;;;;;;;;;;;;;;9.77;38.35;96855.95;110412;1242;60477;-59
2024/01/17 09:37:17;;;;;;;;;;;;;;;9.75;38.54;96867.30;110500;1239;60496;-59
2024/01/17 09:39:47;;;;;;;;;;;;;;;9.92;38.36;96865.59;110357;1242;72350;-59
2024/01/17 09:42:16;;;;;;;;;;;;;;;10.66;40.51;96868.00;110369;1242;69853;-59
2024/01/17 09:44:46;;;;;;;;;;;;;;;10.62;37.17;96862.08;110340;1242;68553;-59
2024/01/17 09:47:18;;;;;;;;;;;;;;;10.94;38.22;96855.45;110411;1244;60529;-58
2024/01/17 09:49:48;;;;;;;;;;;;;;;10.76;35.07;96849.45;110452;1242;60463;-60
2024/01/17 09:52:21;;;;;;;;;;;;;;;11.19;37.59;96846.58;110397;1241;71826;-59
2024/01/17 09:54:51;;;;;;;;;;;;;;;11.39;36.69;96842.60;110371;1242;69291;-58
2024/01/17 09:57:24;;;;;;;;;;;;;;;10.97;36.74;96850.67;110355;1241;67557;-59
2024/01/17 09:59:59;;;;;;;;;;;;;;;11.34;38.03;96833.45;110492;1243;60565;-59
2024/01/17 10:02:29;;;;;;;;;;;;;;;11.28;35.92;96826.10;110404;1242;60528;-59
2024/01/17 10:05:00;;;;;;;;;;;;;;;11.55;35.40;96825.54;110474;1243;71433;-59
2024/01/17 10:07:29;;;;;;;;;;;;;;;11.71;33.81;96820.61;110582;1243;68551;-59
2024/01/17 10:09:58;;;;;;;;;;;;;;;11.62;34.16;96821.05;110419;1242;68513;-59
2024/01/17 10:12:27;;;;;;;;;;;;;;;11.88;36.11;96815.73;110379;1249;60495;-59
2024/01/17 10:15:05;;;;;;;;;;;;;;;11.96;35.13;96813.21;110371;1242;60576;-58
2024/01/17 10:17:38;;;;;;;;;;;;;;;11.74;34.03;96807.66;110380;1243;72760;-61
2024/01/17 10:20:08;;;;;;;;;;;;;;;11.12;35.18;96803.42;110420;1240;68681;-59
2024/01/17 10:22:38;;;;;;;;;;;;;;;10.10;35.81;96806.70;110355;1242;69953;-60
2024/01/17 10:25:08;;;;;;;;;;;;;;;9.51;36.99;96798.36;110340;1241;60614;-57
2024/01/17 10:27:39;;;;;;;;;;;;;;;8.64;37.36;96786.39;110336;1248;60646;-61
2024/01/17 10:30:10;;;;;;;;;;;;;;;7.94;38.23;96783.50;110358;1242;71826;-58
2024/01/17 10:32:41;;;;;;;;;;;;;;;7.06;39.64;96776.87;110409;1242;69141;-57
2024/01/17 10:35:11;;;;;;;;;;;;;;;6.34;40.68;96781.74;110368;1241;69875;-57
2024/01/17 10:37:41;;;;;;;;;;;;;;;5.65;41.85;96783.36;110373;1241;60513;-58
2024/01/17 10:40:11;;;;;;;;;;;;;;;5.40;42.95;96785.27;110482;1241;60882;-58
2024/01/17 10:42:41;;;;;;;;;;;;;;;5.34;42.76;96778.91;110346;1242;72818;-57
2024/01/17 10:45:20;;;;;;;;;;;;;;;5.16;42.81;96775.34;110370;1242;69819;-58
2024/01/17 10:47:49;;;;;;;;;;;;;;;4.92;42.99;96775.61;110362;1243;69564;-58
2024/01/17 10:50:20;;;;;;;;;;;;;;;4.67;42.91;96772.09;110355;1242;60546;-59
2024/01/17 10:52:50;;;;;;;;;;;;;;;4.24;43.27;96772.55;110420;1245;60478;-58
2024/01/17 10:55:21;;;;;;;;;;;;;;;3.82;43.88;96765.23;110464;1241;71375;-57
2024/01/17 10:57:54;;;;;;;;;;;;;;;3.45;44.60;96751.63;110431;1244;69842;-57
2024/01/17 11:00:31;;;;;;;;;;;;;;;3.17;45.29;96743.17;110288;1242;69896;-58
2024/01/17 11:03:08;;;;;;;;;;;;;;;2.87;45.82;96738.73;110387;1241;60553;-57
2024/01/17 11:05:49;;;;;;;;;;;;;;;2.61;46.11;96741.51;110179;1243;584177;-58
2024/01/17 11:08:18;;;;;;;;;;;;;;;2.44;46.55;96739.05;110499;1241;72162;-59
2024/01/17 11:10:48;;;;;;;;;;;;;;;2.30;47.02;96732.53;110528;1242;69219;-58
2024/01/17 11:13:19;;;;;;;;;;;;;;;2.15;47.65;96726.27;110419;1241;69039;-58
2024/01/17 11:15:49;;;;;;;;;;;;;;;2.10;48.08;96718.80;110312;1242;60543;-58
2024/01/17 11:18:20;;;;;;;;;;;;;;;2.13;48.93;96708.66;110374;1242;60461;-59
2024/01/17 11:20:51;;;;;;;;;;;;;;;2.31;49.81;96699.50;110340;1242;72735;-58
2024/01/17 11:23:28;;;;;;;;;;;;;;;2.56;49.49;96695.60;110381;1243;69783;-58
2024/01/17 11:25:57;;;;;;;;;;;;;;;2.68;49.50;96698.95;110338;1242;69272;-59
2024/01/17 11:28:32;;;;;;;;;;;;;;;2.80;50.07;96693.52;110369;1242;60489;-60
2024/01/17 11:31:10;;;;;;;;;;;;;;;3.01;50.25;96690.64;110366;1242;60534;-59
2024/01/17 11:33:40;;;;;;;;;;;;;;;3.18;49.14;96678.05;110382;1241;72062;-60
2024/01/17 11:36:31;;;;;;;;;;;;;;;3.24;48.71;96671.83;110365;1243;67603;-58
2024/01/17 11:39:00;;;;;;;;;;;;;;;3.19;49.49;96665.71;110215;1242;69696;-59
2024/01/17 11:41:33;;;;;;;;;;;;;;;3.35;49.03;96663.84;110330;1242;60492;-58
2024/01/17 11:44:05;;;;;;;;;;;;;;;3.49;48.64;96645.62;110464;1242;60434;-58
2024/01/17 11:46:34;;;;;;;;;;;;;;;3.65;48.72;96641.09;110352;1239;72761;-59
2024/01/17 11:49:05;;;;;;;;;;;;;;;3.86;48.61;96633.98;110342;1242;69533;-58
2024/01/17 11:51:36;;;;;;;;;;;;;;;4.03;48.78;96642.02;110339;1242;69856;-58
2024/01/17 11:54:12;;;;;;;;;;;;;;;4.09;48.30;96645.94;110365;1242;60538;-59
2024/01/17 11:56:42;;;;;;;;;;;;;;;3.99;49.06;96649.11;110487;1241;60479;-59
2024/01/17 11:59:12;;;;;;;;;;;;;;;4.04;48.53;96647.11;110490;1241;71221;-59
2024/01/17 12:01:43;;;;;;;;;;;;;;;4.07;48.60;96643.48;110479;1243;69168;-58
2024/01/17 12:04:14;;;;;;;;;;;;;;;4.07;48.56;96650.05;110454;1242;69273;-59
2024/01/17 12:06:47;;;;;;;;;;;;;;;4.04;48.55;96646.08;110468;1242;60537;-60
2024/01/17 12:09:18;;;;;;;;;;;;;;;3.94;48.10;96637.35;110451;1242;60807;-60
2024/01/17 12:11:53;;;;;;;;;;;;;;;3.80;48.12;96632.16;110429;1242;72799;-59
2024/01/17 12:14:22;;;;;;;;;;;;;;;3.71;48.25;96622.64;110467;1242;70275;-59
2024/01/17 12:16:52;;;;;;;;;;;;;;;3.59;49.37;96620.60;110476;1240;69244;-59
2024/01/17 12:19:21;;;;;;;;;;;;;;;3.54;50.02;96620.00;110412;1241;60473;-59
2024/01/17 12:21:50;;;;;;;;;;;;;;;3.51;49.16;96616.90;110439;1241;60550;-59
2024/01/17 12:24:19;;;;;;;;;;;;;;;3.45;49.13;96615.91;110457;1241;72381;-59
2024/01/17 12:26:48;;;;;;;;;;;;;;;3.36;49.12;96612.61;110497;1242;69819;-58
2024/01/17 12:29:20;;;;;;;;;;;;;;;3.26;49.14;96612.10;110428;1244;68637;-59
2024/01/17 12:31:49;;;;;;;;;;;;;;;3.15;49.24;96606.72;110363;1249;60540;-58
2024/01/17 12:34:18;;;;;;;;;;;;;;;3.08;49.91;96602.97;110366;1243;60545;-59
2024/01/17 12:36:47;;;;;;;;;;;;;;;3.00;51.19;96601.39;110375;1242;71985;-60
2024/01/17 12:39:16;;;;;;;;;;;;;;;2.98;52.34;96597.54;110488;1242;69404;-60
2024/01/17 12:41:45;;;;;;;;;;;;;;;2.98;52.80;96590.95;110411;1241;70208;-59
2024/01/17 12:44:15;;;;;;;;;;;;;;;3.00;53.08;96588.47;110512;1243;60468;-59
2024/01/17 12:46:44;;;;;;;;;;;;;;;3.09;52.09;96588.31;110535;1241;60509;-59
2024/01/17 12:49:14;;;;;;;;;;;;;;;3.14;51.63;96587.83;110424;1247;71550;-58
2024/01/17 12:51:45;;;;;;;;;;;;;;;3.23;51.82;96577.89;110514;1241;69205;-58
2024/01/17 12:54:19;;;;;;;;;;;;;;;3.29;51.38;96571.29;110371;1241;69394;-59
2024/01/17 12:56:48;;;;;;;;;;;;;;;3.38;51.56;96557.91;110378;1240;60478;-59